createdAt,value
2018-01-20T00:00:05.846Z,97945.16
2018-01-20T00:02:34.231Z,97946.00
2018-01-20T00:05:02.536Z,97945.91
2018-01-20T00:07:30.856Z,97951.22
2018-01-20T00:10:14.800Z,97949.23
2018-01-20T00:12:43.099Z,97945.61
2018-01-20T00:15:11.403Z,97954.22
2018-01-20T00:17:39.776Z,97947.89
2018-01-20T00:20:08.842Z,97959.00
2018-01-20T00:22:37.139Z,97950.53
2018-01-20T00:25:06.240Z,97947.35
2018-01-20T00:27:36.659Z,97942.87
2018-01-20T00:30:04.976Z,97935.93
2018-01-20T00:32:33.652Z,97938.63
2018-01-20T00:35:02.008Z,97943.39
2018-01-20T00:37:31.063Z,97940.95
2018-01-20T00:39:59.412Z,97943.93
2018-01-20T00:42:27.716Z,97941.45
2018-01-20T00:44:56.035Z,97935.30
2018-01-20T00:47:24.391Z,97937.22
2018-01-20T00:49:52.700Z,97934.42
2018-01-20T00:52:20.999Z,97940.23
2018-01-20T00:54:49.363Z,97936.27
2018-01-20T00:57:17.681Z,97928.56
2018-01-20T00:59:45.975Z,97925.84
2018-01-20T01:02:14.335Z,97919.87
2018-01-20T01:04:42.649Z,97918.51
2018-01-20T01:07:10.992Z,97914.16
2018-01-20T01:09:39.425Z,97905.95
2018-01-20T01:12:07.773Z,97908.60
2018-01-20T01:14:36.088Z,97909.27
2018-01-20T01:17:04.510Z,97904.05
2018-01-20T01:19:34.580Z,97902.97
2018-01-20T01:22:02.956Z,97909.99
2018-01-20T01:24:31.641Z,97907.02
2018-01-20T01:27:00.809Z,97913.02
2018-01-20T01:29:29.169Z,97907.91
2018-01-20T01:31:57.580Z,97896.61
2018-01-20T01:34:25.916Z,97901.28
2018-01-20T01:36:54.228Z,97910.86
2018-01-20T01:39:23.417Z,97900.73
2018-01-20T01:41:51.724Z,97895.98
2018-01-20T01:44:20.036Z,97892.69
2018-01-20T01:46:48.867Z,97894.34
2018-01-20T01:49:17.172Z,97891.98
2018-01-20T01:51:45.480Z,97885.59
2018-01-20T01:54:13.994Z,97872.25
2018-01-20T01:56:42.295Z,97875.55
2018-01-20T01:59:11.367Z,97871.24
2018-01-20T02:01:39.720Z,97867.63
2018-01-20T02:04:08.023Z,97866.09
2018-01-20T02:06:36.327Z,97856.29
2018-01-20T02:09:04.675Z,97843.69
2018-01-20T02:11:33.766Z,97841.52
2018-01-20T02:14:02.080Z,97857.05
2018-01-20T02:16:31.439Z,97852.56
2018-01-20T02:18:59.919Z,97846.99
2018-01-20T02:21:28.223Z,97855.59
2018-01-20T02:23:56.587Z,97854.14
2018-01-20T02:26:24.900Z,97845.14
2018-01-20T02:28:53.967Z,97848.20
2018-01-20T02:31:22.872Z,97838.36
2018-01-20T02:33:52.031Z,97823.67
2018-01-20T02:36:21.053Z,97824.70
2018-01-20T02:38:49.380Z,97824.23
2018-01-20T02:41:17.695Z,97815.23
2018-01-20T02:43:46.023Z,97810.84
2018-01-20T02:46:14.376Z,97810.45
2018-01-20T02:48:43.443Z,97797.89
2018-01-20T02:51:11.743Z,97799.02
2018-01-20T02:53:40.860Z,97798.05
2018-01-20T02:56:09.163Z,97798.91
2018-01-20T02:58:37.512Z,97792.45
2018-01-20T03:01:06.663Z,97789.38
2018-01-20T03:03:34.968Z,97784.61
2018-01-20T03:06:03.284Z,97784.59
2018-01-20T03:08:32.036Z,97780.68
2018-01-20T03:11:00.335Z,97778.26
2018-01-20T03:13:29.042Z,97779.55
2018-01-20T03:15:57.650Z,97777.84
2018-01-20T03:18:25.959Z,97775.49
2018-01-20T03:20:54.268Z,97781.64
2018-01-20T03:23:22.883Z,97774.27
2018-01-20T03:25:51.188Z,97769.45
2018-01-20T03:28:19.587Z,97766.82
2018-01-20T03:30:48.057Z,97768.74
2018-01-20T03:33:16.367Z,97768.30
2018-01-20T03:35:44.672Z,97771.20
2018-01-20T03:38:13.054Z,97770.36
2018-01-20T03:40:41.359Z,97770.16
2018-01-20T03:43:10.438Z,97764.02
2018-01-20T03:45:38.815Z,97761.24
2018-01-20T03:48:07.172Z,97756.01
2018-01-20T03:50:35.922Z,97758.27
2018-01-20T03:53:04.275Z,97744.99
2018-01-20T03:55:32.580Z,97753.88
2018-01-20T03:58:01.655Z,97750.82
2018-01-20T04:00:31.044Z,97749.09
2018-01-20T04:02:59.347Z,97736.56
2018-01-20T04:05:28.416Z,97745.61
2018-01-20T04:07:57.243Z,97738.28
2018-01-20T04:10:25.547Z,97730.34
2018-01-20T04:12:53.851Z,97725.98
2018-01-20T04:15:22.188Z,97726.27
2018-01-20T04:17:50.487Z,97730.14
2018-01-20T04:20:19.011Z,97739.59
2018-01-20T04:22:47.347Z,97739.47
2018-01-20T04:25:15.775Z,97745.66
2018-01-20T04:27:44.133Z,97744.84
2018-01-20T04:30:13.215Z,97738.53
2018-01-20T04:32:41.524Z,97742.09
2018-01-20T04:35:10.893Z,97753.45
2018-01-20T04:37:39.268Z,97746.64
2018-01-20T04:40:07.580Z,97748.79
2018-01-20T04:42:37.289Z,97741.88
2018-01-20T04:45:05.635Z,97735.60
2018-01-20T04:47:33.973Z,97734.99
2018-01-20T04:50:02.312Z,97732.11
2018-01-20T04:52:30.638Z,97738.19
2018-01-20T04:54:58.944Z,97749.16
2018-01-20T04:57:27.351Z,97743.67
2018-01-20T04:59:56.735Z,97738.59
2018-01-20T05:02:25.048Z,97736.08
2018-01-20T05:04:53.466Z,97727.88
2018-01-20T05:07:21.782Z,97730.37
2018-01-20T05:09:50.095Z,97726.14
2018-01-20T05:12:18.798Z,97724.02
2018-01-20T05:14:47.100Z,97727.34
2018-01-20T05:17:15.408Z,97724.54
2018-01-20T05:19:44.526Z,97733.77
2018-01-20T05:22:12.832Z,97722.94
2018-01-20T05:24:41.141Z,97721.85
2018-01-20T05:27:10.193Z,97716.63
2018-01-20T05:29:38.495Z,97718.05
2018-01-20T05:32:06.804Z,97719.14
2018-01-20T05:34:36.395Z,97722.31
2018-01-20T05:37:04.707Z,97724.47
2018-01-20T05:39:33.779Z,97734.17
2018-01-20T05:42:02.128Z,97735.35
2018-01-20T05:44:30.431Z,97731.05
2018-01-20T05:46:58.743Z,97729.36
2018-01-20T05:49:27.351Z,97734.11
2018-01-20T05:51:55.649Z,97726.78
2018-01-20T05:54:23.963Z,97733.00
2018-01-20T05:56:52.477Z,97731.00
2018-01-20T05:59:20.783Z,97735.95
2018-01-20T06:01:49.284Z,97727.28
2018-01-20T06:04:17.643Z,97736.66
2018-01-20T06:06:45.963Z,97738.72
2018-01-20T06:09:14.282Z,97732.73
2018-01-20T06:11:42.628Z,97719.41
2018-01-20T06:14:11.704Z,97720.31
2018-01-20T06:16:40.781Z,97722.74
2018-01-20T06:19:09.135Z,97726.58
2018-01-20T06:21:37.451Z,97725.98
2018-01-20T06:24:05.819Z,97722.35
2018-01-20T06:26:34.294Z,97724.94
2018-01-20T06:29:02.616Z,97725.56
2018-01-20T06:31:30.927Z,97718.58
2018-01-20T06:33:59.359Z,97713.88
2018-01-20T06:36:27.680Z,97719.20
2018-01-20T06:38:56.001Z,97715.30
2018-01-20T06:41:24.339Z,97706.25
2018-01-20T06:43:52.652Z,97712.83
2018-01-20T06:46:20.959Z,97708.40
2018-01-20T06:48:50.084Z,97712.03
2018-01-20T06:51:18.950Z,97709.26
2018-01-20T06:53:47.270Z,97709.80
2018-01-20T06:56:15.635Z,97717.64
2018-01-20T06:58:43.940Z,97718.86
2018-01-20T07:01:12.247Z,97713.28
2018-01-20T07:03:41.359Z,97717.67
2018-01-20T07:06:09.673Z,97713.24
2018-01-20T07:08:37.976Z,97711.75
2018-01-20T07:11:06.339Z,97712.17
2018-01-20T07:13:35.409Z,97720.27
2018-01-20T07:16:03.723Z,97724.23
2018-01-20T07:18:32.091Z,97727.83
2018-01-20T07:21:00.400Z,97726.47
2018-01-20T07:23:28.700Z,97724.49
2018-01-20T07:25:57.107Z,97724.88
2018-01-20T07:28:25.430Z,97719.05
2018-01-20T07:30:53.743Z,97719.17
2018-01-20T07:33:22.324Z,97718.41
2018-01-20T07:35:50.632Z,97718.83
2018-01-20T07:38:18.943Z,97716.66
2018-01-20T07:40:47.280Z,97714.63
2018-01-20T07:43:15.575Z,97714.78
2018-01-20T07:45:43.871Z,97717.51
2018-01-20T07:48:12.223Z,97706.08
2018-01-20T07:50:40.526Z,97697.48
2018-01-20T07:53:08.835Z,97706.02
2018-01-20T07:55:37.551Z,97697.70
2018-01-20T07:58:05.869Z,97692.55
2018-01-20T08:00:34.172Z,97697.09
2018-01-20T08:03:03.280Z,97693.61
2018-01-20T08:05:31.575Z,97688.91
2018-01-20T08:07:59.879Z,97685.81
2018-01-20T08:10:28.231Z,97683.96
2018-01-20T08:12:56.531Z,97684.63
2018-01-20T08:15:24.834Z,97688.06
2018-01-20T08:17:53.435Z,97683.01
2018-01-20T08:20:22.200Z,97685.28
2018-01-20T08:22:50.491Z,97680.09
2018-01-20T08:25:19.603Z,97675.16
2018-01-20T08:27:47.919Z,97677.36
2018-01-20T08:30:16.859Z,97681.56
2018-01-20T08:32:45.159Z,97676.48
2018-01-20T08:35:13.464Z,97679.41
2018-01-20T08:37:41.783Z,97671.66
2018-01-20T08:40:10.849Z,97669.14
2018-01-20T08:42:39.189Z,97668.64
2018-01-20T08:45:07.488Z,97666.99
2018-01-20T08:47:35.796Z,97665.79
2018-01-20T08:50:04.492Z,97661.61
2018-01-20T08:52:33.074Z,97652.02
2018-01-20T08:55:01.380Z,97659.81
2018-01-20T08:57:29.724Z,97657.27
2018-01-20T08:59:58.832Z,97661.55
2018-01-20T09:02:27.136Z,97663.44
2018-01-20T09:04:55.478Z,97655.70
2018-01-20T09:07:24.369Z,97650.03
2018-01-20T09:09:52.666Z,97647.06
2018-01-20T09:12:21.795Z,97634.47
2018-01-20T09:14:50.086Z,97638.41
2018-01-20T09:17:18.395Z,97627.90
2018-01-20T09:19:46.747Z,97618.87
2018-01-20T09:22:15.050Z,97616.47
2018-01-20T09:24:44.059Z,97614.73
2018-01-20T09:27:12.395Z,97601.31
2018-01-20T09:29:41.332Z,97598.02
2018-01-20T09:32:10.831Z,97602.41
2018-01-20T09:34:39.900Z,97595.81
2018-01-20T09:37:08.204Z,97592.21
2018-01-20T09:39:37.975Z,97582.46
2018-01-20T09:42:06.583Z,97580.70
2018-01-20T09:44:34.884Z,97577.56
2018-01-20T09:47:03.952Z,97570.72
2018-01-20T09:49:32.331Z,97571.22
2018-01-20T09:52:00.710Z,97571.23
2018-01-20T09:54:29.220Z,97574.44
2018-01-20T09:56:58.335Z,97572.55
2018-01-20T09:59:26.644Z,97567.53
2018-01-20T10:01:54.951Z,97561.04
2018-01-20T10:04:23.288Z,97551.84
2018-01-20T10:06:51.596Z,97548.73
2018-01-20T10:09:20.287Z,97545.01
2018-01-20T10:11:49.326Z,97537.23
2018-01-20T10:14:17.669Z,97540.41
2018-01-20T10:16:45.959Z,97537.32
2018-01-20T10:19:14.579Z,97530.22
2018-01-20T10:21:43.011Z,97524.01
2018-01-20T10:24:11.338Z,97523.61
2018-01-20T10:26:40.591Z,97512.27
2018-01-20T10:29:09.333Z,97512.76
2018-01-20T10:31:38.431Z,97504.94
2018-01-20T10:34:07.387Z,97497.06
2018-01-20T10:36:35.715Z,97496.99
2018-01-20T10:39:04.123Z,97480.64
2018-01-20T10:41:33.003Z,97482.38
2018-01-20T10:44:01.369Z,97470.06
2018-01-20T10:46:29.667Z,97468.81
2018-01-20T10:48:58.275Z,97454.27
2018-01-20T10:51:26.739Z,97449.00
2018-01-20T10:53:56.567Z,97447.02
2018-01-20T10:56:24.882Z,97439.71
2018-01-20T10:58:53.327Z,97433.89
2018-01-20T11:01:21.635Z,97420.83
2018-01-20T11:03:49.934Z,97422.99
2018-01-20T11:06:18.276Z,97413.52
2018-01-20T11:08:46.582Z,97410.92
2018-01-20T11:11:14.883Z,97400.95
2018-01-20T11:13:43.239Z,97390.24
2018-01-20T11:16:11.551Z,97383.59
2018-01-20T11:18:40.715Z,97381.84
2018-01-20T11:21:09.255Z,97372.44
2018-01-20T11:23:38.468Z,97361.04
2018-01-20T11:26:06.940Z,97353.05
2018-01-20T11:28:35.403Z,97345.69
2018-01-20T11:31:05.427Z,97338.48
2018-01-20T11:33:33.853Z,97326.91
2018-01-20T11:36:02.187Z,97317.33
2018-01-20T11:38:30.529Z,97309.91
2018-01-20T11:40:58.943Z,97299.86
2018-01-20T11:43:27.319Z,97284.09
2018-01-20T11:45:55.623Z,97286.27
2018-01-20T11:48:24.471Z,97277.80
2018-01-20T11:50:53.536Z,97266.36
2018-01-20T11:53:21.835Z,97259.20
2018-01-20T11:55:50.943Z,97250.16
2018-01-20T11:58:20.311Z,97239.55
2018-01-20T12:00:50.095Z,97232.23
2018-01-20T12:03:19.096Z,97222.83
2018-01-20T12:05:48.040Z,97217.74
2018-01-20T12:08:16.720Z,97206.31
2018-01-20T12:10:45.739Z,97206.43
2018-01-20T12:13:14.046Z,97190.25
2018-01-20T12:15:42.451Z,97186.40
2018-01-20T12:18:10.932Z,97173.09
2018-01-20T12:20:39.235Z,97161.55
2018-01-20T12:23:07.544Z,97156.47
2018-01-20T12:25:36.231Z,97149.48
2018-01-20T12:28:04.619Z,97140.42
2018-01-20T12:30:32.938Z,97136.47
2018-01-20T12:33:01.929Z,97130.88
2018-01-20T12:35:30.239Z,97120.28
2018-01-20T12:37:58.535Z,97116.45
2018-01-20T12:40:26.880Z,97112.37
2018-01-20T12:42:56.558Z,97105.95
2018-01-20T12:45:24.856Z,97089.70
2018-01-20T12:47:53.188Z,97085.45
2018-01-20T12:50:22.295Z,97071.66
2018-01-20T12:52:51.398Z,97066.97
2018-01-20T12:55:20.507Z,97058.75
2018-01-20T12:57:48.795Z,97056.07
2018-01-20T13:00:17.094Z,97045.77
2018-01-20T13:02:45.431Z,97030.70
2018-01-20T13:05:14.335Z,97033.76
2018-01-20T13:07:42.650Z,97017.35
2018-01-20T13:10:10.992Z,97014.94
2018-01-20T13:12:39.301Z,97003.92
2018-01-20T13:15:07.604Z,97002.30
2018-01-20T13:17:35.944Z,96994.11
2018-01-20T13:20:05.007Z,96981.52
2018-01-20T13:22:33.308Z,96970.97
2018-01-20T13:25:02.455Z,96963.25
2018-01-20T13:27:31.279Z,96957.03
2018-01-20T13:29:59.916Z,96946.38
2018-01-20T13:32:28.680Z,96944.61
2018-01-20T13:34:57.762Z,96943.58
2018-01-20T13:37:26.886Z,96942.32
2018-01-20T13:39:55.179Z,96933.20
2018-01-20T13:42:23.537Z,96928.93
2018-01-20T13:44:51.868Z,96924.06
2018-01-20T13:47:20.759Z,96908.08
2018-01-20T13:49:49.060Z,96899.89
2018-01-20T13:52:18.167Z,96895.13
2018-01-20T13:54:46.475Z,96885.55
2018-01-20T13:57:14.831Z,96878.94
2018-01-20T13:59:43.188Z,96866.80
2018-01-20T14:02:11.895Z,96859.24
2018-01-20T14:04:41.197Z,96852.45
2018-01-20T14:07:09.507Z,96847.60
2018-01-20T14:09:38.175Z,96833.77
2018-01-20T14:12:06.508Z,96825.67
2018-01-20T14:14:34.807Z,96824.53
2018-01-20T14:17:03.143Z,96821.91
2018-01-20T14:19:31.447Z,96818.52
2018-01-20T14:22:00.519Z,96815.63
2018-01-20T14:24:28.913Z,96808.30
2018-01-20T14:26:57.227Z,96806.22
2018-01-20T14:29:25.559Z,96795.41
2018-01-20T14:31:54.147Z,96791.28
2018-01-20T14:34:23.955Z,96790.08
2018-01-20T14:36:52.296Z,96782.25
2018-01-20T14:39:20.799Z,96780.48
2018-01-20T14:41:49.112Z,96766.97
2018-01-20T14:44:17.417Z,96766.22
2018-01-20T14:46:45.763Z,96756.45
2018-01-20T14:49:14.128Z,96752.67
2018-01-20T14:51:42.455Z,96745.66
2018-01-20T14:54:10.825Z,96736.77
2018-01-20T14:56:39.176Z,96733.13
2018-01-20T14:59:07.474Z,96730.42
2018-01-20T15:01:35.814Z,96721.52
2018-01-20T15:04:04.964Z,96721.28
2018-01-20T15:06:34.359Z,96710.13
2018-01-20T15:09:02.905Z,96704.97
2018-01-20T15:11:31.847Z,96701.04
2018-01-20T15:14:00.707Z,96692.37
2018-01-20T15:16:29.895Z,96684.47
2018-01-20T15:19:00.041Z,96671.92
2018-01-20T15:21:28.380Z,96665.80
2018-01-20T15:23:57.610Z,96653.15
2018-01-20T15:26:26.474Z,96636.80
2018-01-20T15:28:55.215Z,96632.37
2018-01-20T15:31:24.264Z,96625.22
2018-01-20T15:33:54.455Z,96620.89
2018-01-20T15:36:23.674Z,96616.77
2018-01-20T15:38:53.600Z,96616.22
2018-01-20T15:41:22.412Z,96604.59
2018-01-20T15:43:51.347Z,96600.91
2018-01-20T15:46:20.063Z,96595.36
2018-01-20T15:48:48.367Z,96586.52
2018-01-20T15:51:16.714Z,96586.80
2018-01-20T15:53:45.056Z,96583.66
2018-01-20T15:56:13.357Z,96571.66
2018-01-20T15:58:41.683Z,96562.11
2018-01-20T16:01:10.273Z,96558.22
2018-01-20T16:03:38.614Z,96557.26
2018-01-20T16:06:07.312Z,96549.60
2018-01-20T16:08:36.179Z,96551.12
2018-01-20T16:11:04.526Z,96540.70
2018-01-20T16:13:33.615Z,96536.23
2018-01-20T16:16:01.968Z,96536.41
2018-01-20T16:18:30.284Z,96536.91
2018-01-20T16:20:59.109Z,96528.58
2018-01-20T16:23:28.307Z,96526.94
2018-01-20T16:25:56.713Z,96524.47
2018-01-20T16:28:26.413Z,96528.33
2018-01-20T16:30:55.535Z,96522.53
2018-01-20T16:33:24.189Z,96520.67
2018-01-20T16:35:53.421Z,96512.88
2018-01-20T16:38:21.919Z,96509.72
2018-01-20T16:40:50.548Z,96511.30
2018-01-20T16:43:19.474Z,96501.66
2018-01-20T16:45:47.877Z,96500.22
2018-01-20T16:48:16.380Z,96496.26
2018-01-20T16:50:44.888Z,96497.32
2018-01-20T16:53:13.251Z,96497.73
2018-01-20T16:55:42.353Z,96496.67
2018-01-20T16:58:10.764Z,96488.67
2018-01-20T17:00:39.083Z,96489.50
2018-01-20T17:03:07.416Z,96477.31
2018-01-20T17:05:36.543Z,96477.63
2018-01-20T17:08:04.844Z,96475.27
2018-01-20T17:10:33.191Z,96475.97
2018-01-20T17:13:01.594Z,96481.13
2018-01-20T17:15:29.893Z,96479.37
2018-01-20T17:17:58.431Z,96469.25
2018-01-20T17:20:28.663Z,96470.04
2018-01-20T17:22:57.455Z,96475.30
2018-01-20T17:25:26.717Z,96465.27
2018-01-20T17:27:59.379Z,96466.63
2018-01-20T17:30:27.736Z,96461.71
2018-01-20T17:32:56.494Z,96462.00
2018-01-20T17:35:25.639Z,96459.58
2018-01-20T17:37:53.956Z,96466.78
2018-01-20T17:40:22.255Z,96468.77
2018-01-20T17:42:50.795Z,96468.33
2018-01-20T17:45:19.728Z,96469.06
2018-01-20T17:47:48.775Z,96459.45
2018-01-20T17:50:17.658Z,96457.00
2018-01-20T17:52:46.019Z,96457.59
2018-01-20T17:55:14.400Z,96453.05
2018-01-20T17:57:42.738Z,96453.80
2018-01-20T18:00:11.095Z,96461.20
2018-01-20T18:02:39.460Z,96461.72
2018-01-20T18:05:07.814Z,96452.39
2018-01-20T18:07:36.945Z,96446.21
2018-01-20T18:10:05.395Z,96450.59
2018-01-20T18:12:33.960Z,96444.65
2018-01-20T18:15:02.324Z,96438.97
2018-01-20T18:17:30.680Z,96442.25
2018-01-20T18:19:59.051Z,96437.73
2018-01-20T18:22:28.026Z,96433.22
2018-01-20T18:24:56.639Z,96441.22
2018-01-20T18:27:24.948Z,96443.06
2018-01-20T18:29:53.255Z,96446.64
2018-01-20T18:32:22.079Z,96453.90
2018-01-20T18:34:50.396Z,96447.15
2018-01-20T18:37:19.483Z,96446.42
2018-01-20T18:39:48.667Z,96448.36
2018-01-20T18:42:17.029Z,96437.44
2018-01-20T18:44:45.860Z,96442.80
2018-01-20T18:47:14.257Z,96452.44
2018-01-20T18:49:43.018Z,96444.17
2018-01-20T18:52:11.344Z,96450.58
2018-01-20T18:54:40.413Z,96456.03
2018-01-20T18:57:08.723Z,96454.64
2018-01-20T18:59:37.225Z,96457.48
2018-01-20T19:02:05.627Z,96465.58
2018-01-20T19:04:34.303Z,96465.09
2018-01-20T19:07:02.616Z,96461.48
2018-01-20T19:09:31.039Z,96459.20
2018-01-20T19:11:59.356Z,96458.36
2018-01-20T19:14:27.719Z,96460.47
2018-01-20T19:16:56.871Z,96460.06
2018-01-20T19:19:25.239Z,96453.95
2018-01-20T19:21:54.587Z,96461.25
2018-01-20T19:24:23.595Z,96463.81
2018-01-20T19:26:52.302Z,96468.12
2018-01-20T19:29:21.987Z,96473.89
2018-01-20T19:31:50.409Z,96468.95
2018-01-20T19:34:18.739Z,96472.02
2018-01-20T19:36:47.146Z,96468.34
2018-01-20T19:39:15.511Z,96468.76
2018-01-20T19:41:43.831Z,96465.89
2018-01-20T19:44:12.776Z,96466.15
2018-01-20T19:46:41.851Z,96463.48
2018-01-20T19:49:10.968Z,96459.74
2018-01-20T19:51:40.055Z,96456.25
2018-01-20T19:54:09.536Z,96457.64
2018-01-20T19:56:38.743Z,96461.72
2018-01-20T19:59:07.164Z,96461.62
2018-01-20T20:01:35.522Z,96461.34
2018-01-20T20:04:04.270Z,96463.20
2018-01-20T20:06:32.591Z,96469.86
2018-01-20T20:09:01.563Z,96472.94
2018-01-20T20:11:29.957Z,96467.25
2018-01-20T20:13:58.314Z,96472.58
2018-01-20T20:16:26.799Z,96472.02
2018-01-20T20:18:55.166Z,96471.69
2018-01-20T20:21:23.985Z,96471.63
2018-01-20T20:23:54.773Z,96467.13
2018-01-20T20:26:23.124Z,96470.36
2018-01-20T20:28:53.335Z,96469.99
2018-01-20T20:31:21.894Z,96461.96
2018-01-20T20:33:50.976Z,96458.91
2018-01-20T20:36:19.331Z,96454.21
2018-01-20T20:38:47.707Z,96462.70
2018-01-20T20:41:16.170Z,96461.00
2018-01-20T20:43:44.565Z,96460.81
2018-01-20T20:46:12.937Z,96464.54
2018-01-20T20:48:41.285Z,96460.94
2018-01-20T20:51:09.791Z,96456.73
2018-01-20T20:53:38.156Z,96461.72
2018-01-20T20:56:06.527Z,96456.70
2018-01-20T20:58:34.955Z,96457.07
2018-01-20T21:01:03.731Z,96459.23
2018-01-20T21:03:32.199Z,96460.58
2018-01-20T21:06:00.867Z,96466.47
2018-01-20T21:08:31.765Z,96461.82
2018-01-20T21:11:00.220Z,96467.09
2018-01-20T21:13:30.651Z,96464.64
2018-01-20T21:15:59.222Z,96467.77
2018-01-20T21:18:27.534Z,96459.47
2018-01-20T21:20:56.364Z,96453.22
2018-01-20T21:23:28.188Z,96456.42
2018-01-20T21:25:56.557Z,96458.25
2018-01-20T21:28:25.522Z,96461.84
2018-01-20T21:30:54.023Z,96455.33
2018-01-20T21:33:22.379Z,96462.00
2018-01-20T21:35:50.745Z,96464.95
2018-01-20T21:38:21.353Z,96466.72
2018-01-20T21:40:50.474Z,96471.90
2018-01-20T21:43:19.854Z,96477.03
2018-01-20T21:45:48.351Z,96475.72
2018-01-20T21:48:16.974Z,96477.38
2018-01-20T21:50:45.803Z,96479.97
2018-01-20T21:53:14.736Z,96475.05
2018-01-20T21:55:44.770Z,96477.55
2018-01-20T21:58:13.081Z,96479.13
2018-01-20T22:00:42.083Z,96486.70
2018-01-20T22:03:10.879Z,96480.73
2018-01-20T22:05:39.212Z,96477.30
2018-01-20T22:08:07.597Z,96483.66
2018-01-20T22:10:36.103Z,96489.05
2018-01-20T22:13:05.134Z,96490.81
2018-01-20T22:15:33.936Z,96496.15
2018-01-20T22:18:02.248Z,96502.94
2018-01-20T22:20:31.485Z,96511.55
2018-01-20T22:23:00.276Z,96513.67
2018-01-20T22:25:28.650Z,96510.98
2018-01-20T22:27:57.659Z,96505.92
2018-01-20T22:30:26.199Z,96512.08
2018-01-20T22:32:55.287Z,96510.17
2018-01-20T22:35:23.594Z,96515.88
2018-01-20T22:37:52.723Z,96522.51
2018-01-20T22:40:21.093Z,96529.33
2018-01-20T22:42:49.431Z,96531.48
2018-01-20T22:45:17.836Z,96542.17
2018-01-20T22:47:47.354Z,96552.09
2018-01-20T22:50:15.733Z,96558.03
2018-01-20T22:52:44.755Z,96555.68
2018-01-20T22:55:13.787Z,96563.77
2018-01-20T22:57:42.180Z,96565.95
2018-01-20T23:00:10.785Z,96567.55
2018-01-20T23:02:40.159Z,96573.09
2018-01-20T23:05:09.150Z,96575.92
2018-01-20T23:07:37.523Z,96580.27
2018-01-20T23:10:05.836Z,96586.00
2018-01-20T23:12:34.280Z,96592.17
2018-01-20T23:15:02.631Z,96596.11
2018-01-20T23:17:30.994Z,96600.50
2018-01-20T23:19:59.351Z,96612.77
2018-01-20T23:22:27.708Z,96616.09
2018-01-20T23:24:56.024Z,96627.27
2018-01-20T23:27:24.877Z,96622.83
2018-01-20T23:29:53.190Z,96626.53
2018-01-20T23:32:21.500Z,96638.57
2018-01-20T23:34:50.083Z,96637.31
2018-01-20T23:37:18.879Z,96640.25
2018-01-20T23:39:47.188Z,96648.81
2018-01-20T23:42:15.559Z,96657.22
2018-01-20T23:44:44.049Z,96663.97
2018-01-20T23:47:12.371Z,96669.56
2018-01-20T23:49:41.510Z,96671.59
2018-01-20T23:52:09.827Z,96676.05
2018-01-20T23:54:38.128Z,96682.88
2018-01-20T23:57:06.908Z,96687.50
2018-01-20T23:59:35.283Z,96686.30
